createdAt,value
2023-05-09T00:02:18.392Z,76.32
2023-05-09T00:04:47.011Z,76.08
2023-05-09T00:07:15.717Z,76.41
2023-05-09T00:09:44.154Z,76.11
2023-05-09T00:12:12.441Z,76.22
2023-05-09T00:14:41.529Z,75.49
2023-05-09T00:17:09.691Z,76.08
2023-05-09T00:19:39.164Z,75.41
2023-05-09T00:22:09.151Z,75.99
2023-05-09T00:24:37.257Z,75.48
2023-05-09T00:27:05.836Z,75.58
2023-05-09T00:29:34.280Z,75.64
2023-05-09T00:32:02.835Z,76.00
2023-05-09T00:34:31.358Z,75.66
2023-05-09T01:02:15.091Z,74.99
2023-05-09T01:04:43.723Z,74.96
2023-05-09T01:07:27.853Z,75.58
2023-05-09T01:10:22.894Z,75.68
2023-05-09T01:13:05.614Z,75.16
2023-05-09T01:15:49.068Z,75.83
2023-05-09T01:18:42.053Z,75.52
2023-05-09T01:21:19.829Z,75.50
2023-05-09T01:24:27.308Z,76.02
2023-05-09T01:27:17.504Z,75.46
2023-05-09T01:29:49.623Z,75.57
2023-05-09T01:32:24.448Z,75.83
2023-05-09T01:34:56.913Z,75.28
2023-05-09T01:37:32.760Z,76.06
2023-05-09T01:40:10.009Z,75.23
2023-05-09T01:43:04.913Z,75.69
2023-05-09T01:45:36.134Z,75.85
2023-05-09T01:48:05.798Z,76.22
2023-05-09T01:50:36.863Z,76.23
2023-05-09T01:53:07.246Z,76.42
2023-05-09T01:55:37.375Z,76.44
2023-05-09T01:58:07.439Z,76.10
2023-05-09T02:00:36.639Z,76.45
2023-05-09T02:03:06.020Z,76.55
2023-05-09T02:05:34.830Z,76.70
2023-05-09T02:08:03.921Z,76.33
2023-05-09T02:10:32.762Z,76.41
2023-05-09T02:13:01.366Z,76.60
2023-05-09T02:15:31.038Z,76.38
2023-05-09T02:17:59.268Z,76.67
2023-05-09T02:20:27.888Z,76.85
2023-05-09T02:22:56.133Z,76.64
2023-05-09T02:25:24.607Z,75.95
2023-05-09T02:27:54.756Z,75.80
2023-05-09T02:30:25.934Z,76.35
2023-05-09T02:33:03.291Z,76.30
2023-05-09T02:35:32.091Z,76.25
2023-05-09T02:38:02.104Z,76.25
2023-05-09T02:40:31.554Z,75.83
2023-05-09T02:43:00.062Z,75.91
2023-05-09T02:45:28.527Z,75.65
2023-05-09T02:47:57.054Z,75.41
2023-05-09T02:50:25.439Z,75.10
2023-05-09T02:53:04.676Z,75.18
2023-05-09T02:55:33.178Z,74.64
2023-05-09T02:58:12.727Z,74.31
2023-05-09T03:00:42.173Z,74.30
2023-05-09T03:03:10.398Z,73.51
2023-05-09T03:05:39.087Z,73.59
2023-05-09T03:08:07.621Z,73.63
2023-05-09T03:10:35.972Z,72.91
2023-05-09T03:13:04.088Z,73.27
2023-05-09T03:15:32.657Z,73.19
2023-05-09T03:18:01.178Z,73.16
2023-05-09T03:20:29.300Z,72.84
2023-05-09T03:22:57.554Z,72.89
2023-05-09T03:25:26.513Z,72.45
2023-05-09T03:27:55.090Z,72.85
2023-05-09T03:30:23.599Z,73.16
2023-05-09T03:32:51.679Z,72.83
2023-05-09T03:35:20.371Z,73.13
2023-05-09T03:37:48.852Z,73.02
2023-05-09T03:40:17.221Z,72.94
2023-05-09T03:42:45.733Z,73.09
2023-05-09T03:45:14.007Z,72.89
2023-05-09T03:47:42.378Z,72.93
2023-05-09T03:50:11.429Z,72.44
2023-05-09T03:52:39.583Z,72.52
2023-05-09T03:55:08.694Z,72.15
2023-05-09T03:57:37.468Z,72.42
2023-05-09T04:00:08.126Z,72.48
2023-05-09T04:02:36.614Z,72.17
2023-05-09T04:05:05.132Z,72.41
2023-05-09T04:07:33.568Z,72.15
2023-05-09T04:10:02.168Z,71.96
2023-05-09T04:12:30.754Z,72.12
2023-05-09T04:14:59.226Z,71.77
2023-05-09T04:17:27.760Z,71.19
2023-05-09T04:19:56.356Z,71.17
2023-05-09T04:22:24.841Z,71.44
2023-05-09T04:24:53.284Z,71.58
2023-05-09T04:27:22.031Z,71.73
2023-05-09T04:29:50.531Z,71.45
2023-05-09T04:32:20.908Z,70.97
2023-05-09T04:34:49.014Z,70.29
2023-05-09T04:37:17.180Z,69.90
2023-05-09T04:39:45.316Z,69.82
2023-05-09T04:42:13.394Z,69.67
2023-05-09T04:44:41.857Z,69.59
2023-05-09T04:47:09.942Z,69.09
2023-05-09T04:49:38.582Z,69.30
2023-05-09T04:52:07.380Z,69.21
2023-05-09T04:54:35.429Z,67.93
2023-05-09T04:57:16.571Z,67.57
2023-05-09T04:59:45.841Z,66.71
2023-05-09T05:02:14.056Z,66.65
2023-05-09T05:04:42.193Z,66.16
2023-05-09T05:07:10.722Z,66.30
2023-05-09T05:09:39.186Z,65.16
2023-05-09T05:12:09.726Z,65.12
2023-05-09T05:14:38.580Z,65.00
2023-05-09T05:17:07.020Z,64.57
2023-05-09T05:19:35.339Z,64.70
2023-05-09T05:22:04.076Z,64.18
2023-05-09T05:24:32.178Z,63.30
2023-05-09T05:27:00.352Z,62.76
2023-05-09T05:29:28.824Z,62.48
2023-05-09T05:31:57.067Z,61.88
2023-05-09T05:34:25.605Z,60.36
2023-05-09T05:36:54.064Z,60.75
2023-05-09T05:39:22.145Z,59.45
2023-05-09T05:41:52.102Z,58.78
2023-05-09T05:44:20.279Z,58.44
2023-05-09T05:46:48.740Z,58.30
2023-05-09T05:49:17.191Z,57.25
2023-05-09T05:51:45.419Z,55.84
2023-05-09T05:54:13.539Z,54.74
2023-05-09T05:56:42.009Z,53.83
2023-05-09T05:59:12.525Z,53.76
2023-05-09T06:01:42.011Z,53.24
2023-05-09T06:04:10.646Z,52.04
2023-05-09T06:06:38.953Z,50.87
2023-05-09T06:09:07.100Z,50.30
2023-05-09T06:11:35.198Z,48.49
2023-05-09T06:14:03.650Z,48.25
2023-05-09T06:16:32.190Z,47.10
2023-05-09T06:19:01.125Z,45.12
2023-05-09T06:21:29.581Z,45.51
2023-05-09T06:24:08.518Z,44.68
2023-05-09T06:26:42.863Z,44.33
2023-05-09T06:29:11.321Z,44.90
2023-05-09T06:31:40.932Z,43.36
2023-05-09T06:34:09.795Z,43.96
2023-05-09T06:36:37.986Z,43.10
2023-05-09T06:39:06.539Z,42.94
2023-05-09T06:41:35.048Z,42.56
2023-05-09T06:44:03.548Z,42.61
2023-05-09T06:46:32.178Z,42.03
2023-05-09T06:49:01.861Z,41.89
2023-05-09T06:51:31.124Z,42.00
2023-05-09T06:53:59.666Z,41.77
2023-05-09T06:56:28.234Z,41.32
2023-05-09T06:58:56.736Z,41.28
2023-05-09T07:01:25.271Z,42.04
2023-05-09T07:03:53.766Z,41.02
2023-05-09T07:06:22.303Z,40.94
2023-05-09T07:08:50.727Z,41.10
2023-05-09T07:11:19.182Z,40.38
2023-05-09T07:13:47.694Z,40.26
2023-05-09T07:16:17.961Z,40.69
2023-05-09T07:18:46.653Z,40.55
2023-05-09T07:21:15.144Z,40.57
2023-05-09T07:23:43.630Z,40.30
2023-05-09T07:26:12.104Z,40.71
2023-05-09T07:28:40.606Z,41.09
2023-05-09T07:31:09.694Z,40.64
2023-05-09T07:33:38.249Z,40.46
2023-05-09T07:36:06.905Z,40.80
2023-05-09T07:38:35.413Z,40.26
2023-05-09T07:41:03.851Z,40.12
2023-05-09T07:43:32.340Z,40.37
2023-05-09T07:46:00.900Z,40.64
2023-05-09T07:48:29.465Z,40.79
2023-05-09T07:50:58.422Z,40.36
2023-05-09T07:53:26.922Z,40.57
2023-05-09T07:55:55.414Z,40.50
2023-05-09T07:58:23.944Z,40.64
2023-05-09T08:00:52.462Z,40.04
2023-05-09T08:03:21.147Z,40.52
2023-05-09T08:05:49.756Z,40.66
2023-05-09T08:08:18.232Z,40.12
2023-05-09T08:10:46.703Z,39.98
2023-05-09T08:13:15.515Z,40.08
2023-05-09T08:15:44.014Z,39.41
2023-05-09T08:18:12.458Z,39.33
2023-05-09T08:20:41.178Z,39.31
2023-05-09T08:23:09.783Z,39.31
2023-05-09T08:25:38.332Z,39.49
2023-05-09T08:28:06.812Z,39.96
2023-05-09T08:30:35.357Z,39.43
2023-05-09T08:33:04.086Z,39.77
2023-05-09T08:35:32.567Z,39.90
2023-05-09T08:38:01.486Z,39.58
2023-05-09T08:40:30.041Z,39.65
2023-05-09T08:42:58.777Z,40.29
2023-05-09T08:45:30.449Z,40.26
2023-05-09T08:47:59.275Z,40.07
2023-05-09T08:50:27.815Z,39.66
2023-05-09T08:53:09.657Z,39.72
2023-05-09T08:55:38.211Z,39.55
2023-05-09T08:58:07.297Z,40.14
2023-05-09T09:00:36.073Z,40.50
2023-05-09T09:03:05.026Z,38.67
2023-05-09T09:05:42.221Z,39.15
2023-05-09T09:08:12.382Z,40.26
2023-05-09T09:10:43.508Z,39.33
2023-05-09T09:13:14.078Z,40.04
2023-05-09T09:15:45.142Z,40.11
2023-05-09T09:18:18.455Z,39.79
2023-05-09T09:20:54.606Z,39.64
2023-05-09T09:23:27.484Z,39.52
2023-05-09T09:26:05.013Z,39.46
2023-05-09T09:28:33.657Z,39.13
2023-05-09T09:31:02.484Z,39.59
2023-05-09T09:33:31.436Z,39.94
2023-05-09T09:35:59.909Z,39.20
2023-05-09T09:38:28.394Z,39.85
2023-05-09T09:40:58.069Z,39.92
2023-05-09T09:43:31.466Z,40.26
2023-05-09T09:46:04.990Z,39.68
2023-05-09T09:48:35.767Z,39.85
2023-05-09T09:51:12.824Z,40.68
2023-05-09T09:53:45.808Z,39.98
2023-05-09T09:56:14.376Z,40.03
2023-05-09T09:58:42.901Z,40.17
2023-05-09T10:01:14.302Z,40.73
2023-05-09T10:03:46.270Z,40.29
2023-05-09T10:06:16.866Z,40.99
2023-05-09T10:08:48.966Z,41.23
2023-05-09T10:11:17.591Z,41.64
2023-05-09T10:13:46.355Z,41.44
2023-05-09T10:16:15.354Z,41.01
2023-05-09T10:18:44.301Z,40.82
2023-05-09T10:21:16.562Z,41.21
2023-05-09T10:23:47.890Z,41.10
2023-05-09T10:26:27.828Z,40.61
2023-05-09T10:29:01.919Z,41.27
2023-05-09T10:31:33.477Z,40.82
2023-05-09T10:34:07.125Z,40.20
2023-05-09T10:36:35.735Z,40.09
2023-05-09T10:39:04.821Z,39.80
2023-05-09T10:41:33.592Z,39.68
2023-05-09T10:44:02.344Z,39.96
2023-05-09T10:46:31.387Z,39.74
2023-05-09T10:49:00.201Z,39.23
2023-05-09T10:51:29.141Z,39.84
2023-05-09T10:53:57.987Z,39.22
2023-05-09T10:56:37.220Z,39.82
2023-05-09T10:59:05.748Z,38.66
2023-05-09T11:01:39.841Z,39.36
2023-05-09T11:04:17.964Z,39.49
2023-05-09T11:06:55.853Z,39.54
2023-05-09T11:09:41.438Z,39.64
2023-05-09T11:12:15.977Z,39.12
2023-05-09T11:14:49.923Z,38.84
2023-05-09T11:17:24.772Z,38.98
2023-05-09T11:19:53.373Z,39.16
2023-05-09T11:22:33.362Z,39.31
2023-05-09T11:25:28.419Z,39.44
2023-05-09T11:28:02.561Z,38.62
2023-05-09T11:30:44.862Z,38.52
2023-05-09T11:33:30.289Z,38.27
2023-05-09T11:36:30.126Z,38.05
2023-05-09T11:39:10.900Z,38.26
2023-05-09T11:41:45.755Z,38.62
2023-05-09T11:44:19.844Z,38.29
2023-05-09T11:46:50.262Z,37.13
2023-05-09T11:49:19.717Z,38.17
2023-05-09T11:51:48.266Z,37.66
2023-05-09T11:54:16.763Z,37.35
2023-05-09T11:56:45.322Z,36.47
2023-05-09T11:59:15.883Z,35.95
2023-05-09T12:01:44.502Z,35.77
2023-05-09T12:04:13.004Z,35.72
2023-05-09T12:06:41.755Z,36.45
2023-05-09T12:09:11.436Z,36.34
2023-05-09T12:11:40.069Z,36.34
2023-05-09T12:14:08.612Z,36.43
2023-05-09T12:16:37.223Z,36.31
2023-05-09T12:19:06.232Z,36.29
2023-05-09T12:21:34.769Z,36.44
2023-05-09T12:24:03.250Z,36.48
2023-05-09T12:26:32.023Z,36.41
2023-05-09T12:29:00.541Z,35.46
2023-05-09T12:31:29.433Z,35.65
2023-05-09T12:33:58.089Z,36.23
2023-05-09T12:36:26.566Z,36.27
2023-05-09T12:38:56.354Z,36.14
2023-05-09T12:43:56.645Z,35.84
2023-05-09T12:46:25.730Z,36.70
2023-05-09T12:48:54.300Z,36.24
2023-05-09T12:51:23.650Z,34.44
2023-05-09T12:53:52.697Z,34.34
2023-05-09T12:56:23.525Z,33.65
2023-05-09T12:58:56.799Z,34.41
2023-05-09T13:01:29.925Z,34.44
2023-05-09T13:04:07.554Z,33.89
2023-05-09T13:06:38.003Z,34.35
2023-05-09T13:09:08.126Z,34.01
2023-05-09T13:11:37.914Z,33.84
2023-05-09T13:14:06.517Z,33.67
2023-05-09T13:16:35.477Z,32.78
2023-05-09T13:19:05.416Z,32.51
2023-05-09T13:21:35.041Z,31.77
2023-05-09T13:24:04.575Z,31.52
2023-05-09T13:26:34.015Z,32.05
2023-05-09T13:29:02.531Z,31.03
2023-05-09T13:31:31.439Z,30.87
2023-05-09T13:33:59.943Z,29.18
2023-05-09T13:36:28.451Z,27.78
2023-05-09T13:38:57.004Z,27.12
2023-05-09T13:41:26.114Z,26.75
2023-05-09T13:43:54.595Z,25.97
2023-05-09T13:46:23.106Z,25.94
2023-05-09T13:48:51.709Z,26.10
2023-05-09T13:51:21.899Z,26.25
2023-05-09T13:53:50.430Z,26.18
2023-05-09T13:56:19.521Z,25.59
2023-05-09T13:58:48.049Z,24.97
2023-05-09T14:01:16.790Z,25.04
2023-05-09T14:03:47.332Z,24.87
2023-05-09T14:06:15.998Z,24.94
2023-05-09T14:08:44.530Z,25.73
2023-05-09T14:11:13.049Z,25.58
2023-05-09T14:13:42.283Z,25.87
2023-05-09T14:16:10.805Z,25.36
2023-05-09T14:18:39.377Z,25.37
2023-05-09T14:21:08.304Z,25.08
2023-05-09T14:23:36.823Z,24.37
2023-05-09T14:26:05.355Z,23.64
2023-05-09T14:28:33.926Z,23.91
2023-05-09T14:31:05.293Z,23.50
2023-05-09T14:33:36.069Z,23.32
2023-05-09T14:36:06.151Z,24.28
2023-05-09T14:38:35.295Z,22.64
2023-05-09T14:41:04.308Z,23.57
2023-05-09T14:43:32.968Z,22.84
2023-05-09T14:46:01.437Z,22.29
2023-05-09T14:48:29.882Z,21.37
2023-05-09T14:50:58.344Z,21.75
2023-05-09T14:53:27.358Z,22.04
2023-05-09T14:55:56.039Z,22.67
2023-05-09T14:58:24.789Z,22.05
2023-05-09T15:00:53.684Z,22.66
2023-05-09T15:03:22.206Z,21.96
2023-05-09T15:05:51.804Z,21.93
2023-05-09T15:08:20.290Z,21.44
2023-05-09T15:10:50.894Z,21.05
2023-05-09T15:13:19.517Z,19.91
2023-05-09T15:15:48.069Z,21.32
2023-05-09T15:18:18.471Z,22.36
2023-05-09T15:20:46.962Z,21.26
2023-05-09T15:23:15.553Z,22.06
2023-05-09T15:25:44.514Z,22.82
2023-05-09T15:28:13.041Z,22.70
2023-05-09T15:30:41.727Z,23.14
2023-05-09T15:33:10.612Z,22.84
2023-05-09T15:35:39.103Z,22.01
2023-05-09T15:38:07.926Z,21.99
2023-05-09T15:40:36.501Z,22.15
2023-05-09T15:43:08.283Z,22.65
2023-05-09T15:45:37.958Z,23.16
2023-05-09T15:48:06.949Z,23.52
2023-05-09T15:50:35.503Z,23.34
2023-05-09T15:53:03.996Z,23.28
2023-05-09T15:55:33.449Z,23.43
2023-05-09T15:58:02.802Z,23.86
2023-05-09T16:00:32.211Z,23.70
2023-05-09T16:03:02.234Z,23.79
2023-05-09T16:05:30.882Z,23.79
2023-05-09T16:07:59.106Z,23.80
2023-05-09T16:10:27.636Z,23.72
2023-05-09T16:12:56.104Z,24.05
2023-05-09T16:15:25.946Z,23.95
2023-05-09T16:17:54.400Z,23.72
2023-05-09T16:20:23.055Z,24.45
2023-05-09T16:22:51.604Z,25.19
2023-05-09T16:25:20.315Z,25.00
2023-05-09T16:27:48.739Z,25.06
2023-05-09T16:30:17.721Z,25.38
2023-05-09T16:32:46.772Z,25.01
2023-05-09T16:35:15.347Z,25.13
2023-05-09T16:37:44.432Z,25.54
2023-05-09T16:40:13.550Z,25.96
2023-05-09T16:42:42.895Z,26.06
2023-05-09T16:45:11.883Z,26.54
2023-05-09T16:47:40.420Z,27.12
2023-05-09T16:50:10.394Z,27.21
2023-05-09T16:52:38.937Z,27.63
2023-05-09T16:55:07.772Z,28.26
2023-05-09T16:57:36.240Z,28.56
2023-05-09T17:00:07.743Z,28.79
2023-05-09T17:02:37.225Z,29.17
2023-05-09T17:05:06.339Z,29.56
2023-05-09T17:07:34.809Z,30.03
2023-05-09T17:10:03.943Z,30.48
2023-05-09T17:12:32.424Z,30.53
2023-05-09T17:15:01.098Z,30.73
2023-05-09T17:17:29.559Z,31.07
2023-05-09T17:19:58.815Z,31.05
2023-05-09T17:22:27.258Z,31.43
2023-05-09T17:24:56.211Z,31.48
2023-05-09T17:27:24.787Z,31.49
2023-05-09T17:29:53.208Z,31.43
2023-05-09T17:32:21.684Z,31.74
2023-05-09T17:34:50.161Z,32.09
2023-05-09T17:37:18.730Z,32.15
2023-05-09T17:39:47.254Z,32.60
2023-05-09T17:42:15.716Z,32.69
2023-05-09T17:44:44.651Z,33.34
2023-05-09T17:47:14.279Z,33.43
2023-05-09T17:49:42.971Z,33.85
2023-05-09T17:52:11.429Z,34.39
2023-05-09T17:54:48.561Z,34.67
2023-05-09T17:57:17.010Z,35.10
2023-05-09T17:59:47.825Z,35.39
2023-05-09T18:02:16.841Z,35.95
2023-05-09T18:04:46.367Z,35.97
2023-05-09T18:07:15.160Z,36.18
2023-05-09T18:09:43.641Z,36.42
2023-05-09T18:12:12.394Z,36.60
2023-05-09T18:14:41.055Z,37.03
2023-05-09T18:17:09.505Z,37.07
2023-05-09T18:19:40.010Z,37.52
2023-05-09T18:22:08.580Z,38.03
2023-05-09T18:24:37.178Z,38.16
2023-05-09T18:27:05.710Z,38.34
2023-05-09T18:29:34.165Z,38.62
2023-05-09T18:32:03.062Z,38.72
2023-05-09T18:34:31.597Z,39.09
2023-05-09T18:37:00.139Z,39.26
2023-05-09T18:39:28.657Z,39.82
2023-05-09T18:41:57.337Z,39.88
2023-05-09T18:44:25.870Z,40.22
2023-05-09T18:46:54.672Z,40.36
2023-05-09T18:49:25.982Z,40.49
2023-05-09T18:51:55.055Z,40.88
2023-05-09T18:54:24.539Z,40.92
2023-05-09T18:56:53.278Z,41.26
2023-05-09T18:59:22.765Z,41.57
2023-05-09T19:01:51.246Z,41.60
2023-05-09T19:04:19.857Z,41.98
2023-05-09T19:06:48.596Z,42.19
2023-05-09T19:09:17.159Z,42.32
2023-05-09T19:11:45.649Z,42.56
2023-05-09T19:14:14.241Z,42.67
2023-05-09T19:16:42.714Z,42.96
2023-05-09T19:19:11.250Z,43.27
2023-05-09T19:21:39.794Z,43.74
2023-05-09T19:24:09.141Z,44.27
2023-05-09T19:26:37.626Z,44.67
2023-05-09T19:29:08.287Z,45.11
2023-05-09T19:31:38.251Z,45.56
2023-05-09T19:34:06.821Z,46.26
2023-05-09T19:36:35.338Z,46.46
2023-05-09T19:39:05.284Z,46.95
2023-05-09T19:41:33.764Z,47.06
2023-05-09T19:44:02.288Z,47.86
2023-05-09T19:46:30.800Z,48.21
2023-05-09T19:48:59.354Z,48.37
2023-05-09T19:51:27.936Z,48.75
2023-05-09T19:53:56.430Z,49.20
2023-05-09T19:56:24.881Z,49.60
2023-05-09T19:58:53.397Z,49.59
2023-05-09T20:01:22.132Z,49.75
2023-05-09T20:03:52.448Z,50.13
2023-05-09T20:06:21.064Z,50.08
2023-05-09T20:08:51.605Z,50.25
2023-05-09T20:11:21.059Z,50.40
2023-05-09T20:13:49.578Z,50.51
2023-05-09T20:16:18.725Z,50.63
2023-05-09T20:18:47.695Z,50.51
2023-05-09T20:21:16.759Z,50.51
2023-05-09T20:23:45.246Z,50.66
2023-05-09T20:26:14.010Z,50.62
2023-05-09T20:28:42.513Z,50.46
2023-05-09T20:31:11.103Z,50.57
2023-05-09T20:33:40.052Z,50.56
2023-05-09T20:36:09.597Z,50.96
2023-05-09T20:38:38.131Z,51.01
2023-05-09T20:41:06.609Z,50.76
2023-05-09T20:43:35.018Z,51.15
2023-05-09T20:46:03.523Z,50.92
2023-05-09T20:48:32.044Z,51.09
2023-05-09T20:51:00.489Z,51.25
2023-05-09T20:53:31.813Z,51.37
2023-05-09T20:56:00.554Z,51.82
2023-05-09T20:58:33.870Z,51.84
2023-05-09T21:01:02.511Z,52.05
2023-05-09T21:03:31.007Z,51.89
2023-05-09T21:05:59.876Z,52.06
2023-05-09T21:08:28.333Z,52.11
2023-05-09T21:10:56.830Z,52.23
2023-05-09T21:13:25.322Z,52.25
2023-05-09T21:15:53.877Z,52.50
2023-05-09T21:18:22.436Z,52.50
2023-05-09T21:20:51.104Z,52.84
2023-05-09T21:23:19.620Z,52.80
2023-05-09T21:25:48.142Z,53.11
2023-05-09T21:28:17.381Z,52.99
2023-05-09T21:30:50.071Z,53.12
2023-05-09T21:33:18.530Z,53.43
2023-05-09T21:35:47.127Z,53.15
2023-05-09T21:38:15.711Z,53.50
2023-05-09T21:40:44.281Z,53.69
2023-05-09T21:43:12.802Z,53.85
2023-05-09T21:45:41.251Z,53.91
2023-05-09T21:48:09.773Z,53.70
2023-05-09T21:50:38.325Z,53.91
2023-05-09T21:53:07.015Z,53.96
2023-05-09T21:55:35.497Z,54.18
2023-05-09T21:58:04.280Z,54.59
2023-05-09T22:00:33.141Z,54.68
2023-05-09T22:03:01.958Z,54.88
2023-05-09T22:05:30.515Z,54.86
2023-05-09T22:07:58.606Z,55.02
2023-05-09T22:10:26.696Z,55.52
2023-05-09T22:12:54.974Z,55.83
2023-05-09T22:15:23.658Z,55.69
2023-05-09T22:17:52.206Z,56.12
2023-05-09T22:20:21.170Z,56.12
2023-05-09T22:22:49.673Z,56.39
2023-05-09T22:25:17.853Z,56.71
2023-05-09T22:27:46.320Z,56.85
2023-05-09T22:30:15.209Z,56.91
2023-05-09T22:32:43.638Z,57.43
2023-05-09T22:35:12.599Z,57.10
2023-05-09T22:37:41.110Z,57.44
2023-05-09T22:40:10.457Z,57.66
2023-05-09T22:42:38.561Z,57.89
2023-05-09T22:45:07.391Z,57.98
2023-05-09T22:47:35.951Z,57.95
2023-05-09T22:50:04.236Z,58.04
2023-05-09T22:52:32.747Z,58.18
2023-05-09T22:55:01.195Z,58.63
2023-05-09T22:57:29.274Z,58.99
2023-05-09T22:59:57.359Z,59.21
2023-05-09T23:02:26.667Z,59.34
2023-05-09T23:04:55.232Z,59.47
2023-05-09T23:07:23.784Z,59.78
2023-05-09T23:09:52.064Z,59.78
2023-05-09T23:12:20.510Z,59.58
2023-05-09T23:14:49.275Z,60.17
2023-05-09T23:17:17.380Z,60.29
2023-05-09T23:19:46.081Z,60.26
2023-05-09T23:22:14.619Z,60.64
2023-05-09T23:24:42.721Z,60.09
2023-05-09T23:27:11.637Z,60.52
2023-05-09T23:29:40.157Z,60.48
2023-05-09T23:32:08.252Z,60.86
2023-05-09T23:34:37.154Z,61.09
2023-05-09T23:37:05.788Z,61.50
2023-05-09T23:39:34.365Z,61.20
2023-05-09T23:42:04.239Z,61.54
2023-05-09T23:44:32.446Z,61.63
2023-05-09T23:47:01.970Z,61.68
2023-05-09T23:49:30.635Z,61.93
2023-05-09T23:51:59.093Z,61.97
2023-05-09T23:54:27.645Z,62.36
2023-05-09T23:56:56.408Z,62.21
2023-05-09T23:59:24.884Z,62.44
